Time;durP1;ratioP1;P1;durP2;ratioP2;P2;SDS_P1;SDS_P2;PMS_P1;PMS_P2;Temp;Humidity;BMP_temperature;BMP_pressure;BME280_temperature;BME280_humidity;BME280_pressure;Samples;Min_cycle;Max_cycle;Signal;HPM_P1;HPM_P2
2023/04/24 00:00:40;;;;;;;;;;;;;;;8.54;100.00;99847.41;5034629;28;1945;-76
2023/04/24 00:03:06;;;;;;;;;;;;;;;8.49;100.00;99851.25;5026767;28;1466;-77
2023/04/24 00:05:32;;;;;;;;;;;;;;;8.54;100.00;99852.59;5042066;28;1439;-77
2023/04/24 00:07:58;;;;;;;;;;;;;;;8.49;100.00;99846.06;5042299;28;1259;-77
2023/04/24 00:10:23;;;;;;;;;;;;;;;8.41;100.00;99853.66;5039744;28;1494;-78
2023/04/24 00:12:48;;;;;;;;;;;;;;;8.49;100.00;99846.06;5033006;28;1097;-77
2023/04/24 00:15:13;;;;;;;;;;;;;;;8.36;100.00;99850.66;5039997;28;1103;-77
2023/04/24 00:17:38;;;;;;;;;;;;;;;8.39;100.00;99850.41;5043622;28;1303;-77
2023/04/24 00:20:06;;;;;;;;;;;;;;;8.37;100.00;99854.91;5048286;28;1886;-77
2023/04/24 00:22:31;;;;;;;;;;;;;;;8.35;100.00;99859.34;5029777;28;1373;-76
2023/04/24 00:24:57;;;;;;;;;;;;;;;8.35;100.00;99864.50;5017140;28;1186;-78
2023/04/24 00:27:22;;;;;;;;;;;;;;;8.36;100.00;99861.00;5018364;28;1183;-76
2023/04/24 00:29:48;;;;;;;;;;;;;;;8.38;100.00;99856.53;5038332;28;1204;-80
2023/04/24 00:32:14;;;;;;;;;;;;;;;8.52;100.00;99865.66;5022560;28;1326;-76
2023/04/24 00:34:39;;;;;;;;;;;;;;;8.48;100.00;99870.25;5040871;28;1498;-76
2023/04/24 00:37:05;;;;;;;;;;;;;;;8.49;100.00;99856.41;5033662;28;1113;-76
2023/04/24 00:39:30;;;;;;;;;;;;;;;8.51;100.00;99864.84;5020768;28;1953;-78
2023/04/24 00:41:56;;;;;;;;;;;;;;;8.51;100.00;99859.66;5019782;28;1141;-77
2023/04/24 00:44:21;;;;;;;;;;;;;;;8.56;100.00;99853.28;5035257;28;1167;-76
2023/04/24 00:46:51;;;;;;;;;;;;;;;8.56;100.00;99871.38;5039656;28;1466;-77
2023/04/24 00:49:17;;;;;;;;;;;;;;;8.52;100.00;99866.47;5020188;28;1442;-77
2023/04/24 00:51:45;;;;;;;;;;;;;;;8.56;100.00;99866.22;5021547;28;1322;-78
2023/04/24 00:54:11;;;;;;;;;;;;;;;8.61;100.00;99869.19;5013958;28;1221;-79
2023/04/24 00:56:36;;;;;;;;;;;;;;;8.55;100.00;99862.00;5042601;28;944;-76
2023/04/24 00:59:01;;;;;;;;;;;;;;;8.63;100.00;99872.47;5040544;28;1085;-76
2023/04/24 01:01:26;;;;;;;;;;;;;;;8.58;100.00;99864.28;5021353;28;1893;-77
2023/04/24 01:03:52;;;;;;;;;;;;;;;8.59;100.00;99873.66;5042042;28;1017;-78
2023/04/24 01:06:18;;;;;;;;;;;;;;;8.58;100.00;99869.47;5026543;28;1354;-76
2023/04/24 01:08:45;;;;;;;;;;;;;;;8.60;100.00;99872.72;5022251;28;1321;-76
2023/04/24 01:11:11;;;;;;;;;;;;;;;8.56;100.00;99871.38;5028636;28;1358;-76
2023/04/24 01:13:36;;;;;;;;;;;;;;;8.56;100.00;99866.22;5046218;28;1205;-76
2023/04/24 01:16:01;;;;;;;;;;;;;;;8.59;100.00;99865.91;5025966;28;1264;-77
2023/04/24 01:18:27;;;;;;;;;;;;;;;8.59;100.00;99866.72;5030309;28;1180;-76
2023/04/24 01:20:56;;;;;;;;;;;;;;;8.59;100.00;99855.59;5041604;28;1944;-77
2023/04/24 01:23:22;;;;;;;;;;;;;;;8.58;100.00;99865.09;5046995;28;1145;-76
2023/04/24 01:25:47;;;;;;;;;;;;;;;8.61;100.00;99864.03;5046498;28;1181;-79
2023/04/24 01:28:13;;;;;;;;;;;;;;;8.62;100.00;99866.47;5030776;28;1259;-77
2023/04/24 01:30:39;;;;;;;;;;;;;;;8.73;100.00;99857.78;5026408;28;1346;-78
2023/04/24 01:33:05;;;;;;;;;;;;;;;8.65;100.00;99860.19;5038076;28;1146;-77
2023/04/24 01:35:30;;;;;;;;;;;;;;;8.63;100.00;99864.69;5031162;28;1360;-76
2023/04/24 01:37:55;;;;;;;;;;;;;;;8.62;100.00;99870.84;5018957;28;1403;-79
2023/04/24 01:40:20;;;;;;;;;;;;;;;8.67;100.00;99859.13;5049113;28;1918;-79
2023/04/24 01:42:46;;;;;;;;;;;;;;;8.64;100.00;99863.75;5031350;28;1267;-76
2023/04/24 01:45:12;;;;;;;;;;;;;;;8.67;100.00;99863.50;5031383;28;1422;-76
2023/04/24 01:47:38;;;;;;;;;;;;;;;8.63;100.00;99870.69;5048297;28;1310;-77
2023/04/24 01:50:04;;;;;;;;;;;;;;;8.66;100.00;99862.69;5029557;28;1364;-76
2023/04/24 01:52:31;;;;;;;;;;;;;;;8.60;100.00;99873.56;5025540;28;1200;-76
2023/04/24 01:54:56;;;;;;;;;;;;;;;8.63;100.00;99859.53;5042805;28;1170;-76
2023/04/24 01:57:22;;;;;;;;;;;;;;;8.63;100.00;99862.13;5027809;28;1554;-77
2023/04/24 01:59:47;;;;;;;;;;;;;;;8.61;100.00;99871.78;5040167;28;1973;-80
2023/04/24 02:02:12;;;;;;;;;;;;;;;8.63;100.00;99851.78;5044407;28;1443;-76
2023/04/24 02:04:37;;;;;;;;;;;;;;;8.61;100.00;99864.03;5037478;28;1077;-77
2023/04/24 02:07:02;;;;;;;;;;;;;;;8.60;100.00;99858.06;5037790;28;1211;-76
2023/04/24 02:09:28;;;;;;;;;;;;;;;8.56;100.00;99856.69;5044443;28;1301;-77
2023/04/24 02:11:53;;;;;;;;;;;;;;;8.58;100.00;99859.13;5044009;28;1281;-76
2023/04/24 02:14:18;;;;;;;;;;;;;;;8.58;100.00;99861.72;5037670;28;1353;-77
2023/04/24 02:16:43;;;;;;;;;;;;;;;8.58;100.00;99861.72;5047776;28;1086;-75
2023/04/24 02:19:09;;;;;;;;;;;;;;;8.61;100.00;99858.88;5029924;28;1299;-77
2023/04/24 02:21:34;;;;;;;;;;;;;;;8.60;100.00;99862.38;5025800;28;1890;-76
2023/04/24 02:23:59;;;;;;;;;;;;;;;8.57;100.00;99868.66;5024078;28;1427;-77
2023/04/24 02:26:25;;;;;;;;;;;;;;;8.59;100.00;99868.50;5040125;28;1250;-77
2023/04/24 02:28:50;;;;;;;;;;;;;;;8.62;100.00;99870.84;5027633;28;1270;-76
2023/04/24 02:31:15;;;;;;;;;;;;;;;8.58;100.00;99874.63;5048524;28;1127;-76
2023/04/24 02:33:40;;;;;;;;;;;;;;;8.59;100.00;99871.09;5042095;28;1198;-76
2023/04/24 02:36:06;;;;;;;;;;;;;;;8.55;100.00;99869.75;5032616;28;1036;-76
2023/04/24 02:38:31;;;;;;;;;;;;;;;8.51;100.00;99870.00;5043819;28;1219;-78
2023/04/24 02:40:56;;;;;;;;;;;;;;;8.51;100.00;99864.84;5029489;28;1898;-76
2023/04/24 02:43:21;;;;;;;;;;;;;;;8.50;100.00;99870.97;5022220;28;1206;-78
2023/04/24 02:45:47;;;;;;;;;;;;;;;8.47;100.00;99868.63;5044537;28;1351;-75
2023/04/24 02:48:13;;;;;;;;;;;;;;;8.48;100.00;99870.25;5036462;28;1142;-75
2023/04/24 02:50:38;;;;;;;;;;;;;;;8.50;100.00;99868.38;5036722;28;1466;-76
2023/04/24 02:53:03;;;;;;;;;;;;;;;8.49;100.00;99861.59;5033178;28;1010;-75
2023/04/24 02:55:28;;;;;;;;;;;;;;;8.43;100.00;99866.44;5041117;28;1165;-76
2023/04/24 02:57:53;;;;;;;;;;;;;;;8.45;100.00;99864.56;5019341;28;1265;-78
2023/04/24 03:00:19;;;;;;;;;;;;;;;8.41;100.00;99858.03;5025336;28;1890;-76
2023/04/24 03:02:44;;;;;;;;;;;;;;;8.39;100.00;99860.75;5019129;28;1279;-77
2023/04/24 03:05:11;;;;;;;;;;;;;;;8.39;100.00;99862.53;5024873;28;1195;-76
2023/04/24 03:07:37;;;;;;;;;;;;;;;8.37;100.00;99862.66;5042685;28;1093;-77
2023/04/24 03:10:02;;;;;;;;;;;;;;;8.34;100.00;99862.88;5036553;28;1183;-77
2023/04/24 03:12:27;;;;;;;;;;;;;;;8.32;100.00;99864.81;5042493;28;1211;-76
2023/04/24 03:14:52;;;;;;;;;;;;;;;8.35;100.00;99864.50;5042959;28;1166;-79
2023/04/24 03:17:17;;;;;;;;;;;;;;;8.30;100.00;99864.09;5037882;28;1159;-77
2023/04/24 03:19:43;;;;;;;;;;;;;;;8.26;100.00;99865.34;5034180;28;1922;-77
2023/04/24 03:22:09;;;;;;;;;;;;;;;8.24;100.00;99862.06;5022118;28;1178;-76
2023/04/24 03:24:34;;;;;;;;;;;;;;;8.23;100.00;99865.59;5037166;28;1124;-76
2023/04/24 03:27:00;;;;;;;;;;;;;;;8.20;100.00;99860.69;5015216;28;1352;-76
2023/04/24 03:29:25;;;;;;;;;;;;;;;8.21;100.00;99862.34;5035832;28;1178;-78
2023/04/24 03:31:50;;;;;;;;;;;;;;;8.20;100.00;99860.69;5040616;28;1097;-76
2023/04/24 03:34:15;;;;;;;;;;;;;;;8.18;100.00;99862.59;5033726;28;1093;-77
2023/04/24 03:36:41;;;;;;;;;;;;;;;8.20;100.00;99866.69;5042458;28;1099;-76
2023/04/24 03:39:06;;;;;;;;;;;;;;;8.14;100.00;99866.38;5040724;28;1145;-76
2023/04/24 03:41:31;;;;;;;;;;;;;;;8.12;100.00;99863.13;5026649;28;1958;-75
2023/04/24 03:43:56;;;;;;;;;;;;;;;8.10;100.00;99859.88;5047944;28;1349;-77
2023/04/24 03:46:22;;;;;;;;;;;;;;;8.09;100.00;99858.25;5038694;28;1098;-76
2023/04/24 03:48:47;;;;;;;;;;;;;;;8.06;100.00;99853.31;5042161;28;1510;-75
2023/04/24 03:51:12;;;;;;;;;;;;;;;8.07;100.00;99860.13;5019702;28;1531;-77
2023/04/24 03:53:37;;;;;;;;;;;;;;;8.02;100.00;99851.94;5042477;28;1129;-78
2023/04/24 03:56:02;;;;;;;;;;;;;;;7.98;100.00;99856.56;5028335;28;1323;-78
2023/04/24 03:58:28;;;;;;;;;;;;;;;7.95;100.00;99852.47;5038953;28;1110;-76
2023/04/24 04:00:53;;;;;;;;;;;;;;;7.92;100.00;99849.34;5023138;28;1957;-76
2023/04/24 04:03:18;;;;;;;;;;;;;;;7.94;100.00;99856.00;5046764;28;1332;-76
2023/04/24 04:05:44;;;;;;;;;;;;;;;7.89;100.00;99858.16;5024155;28;1421;-76
2023/04/24 04:08:09;;;;;;;;;;;;;;;7.87;100.00;99844.59;5041844;28;1254;-77
2023/04/24 04:10:34;;;;;;;;;;;;;;;7.87;100.00;99848.94;5041448;28;1333;-80
2023/04/24 04:13:00;;;;;;;;;;;;;;;7.86;100.00;99853.28;5042150;28;1315;-77
2023/04/24 04:15:25;;;;;;;;;;;;;;;7.87;100.00;99849.75;5033477;28;1474;-78
2023/04/24 04:17:50;;;;;;;;;;;;;;;7.83;100.00;99852.72;5018573;28;1308;-77
2023/04/24 04:20:16;;;;;;;;;;;;;;;7.83;100.00;99858.69;5042205;28;1902;-77
2023/04/24 04:22:41;;;;;;;;;;;;;;;7.82;100.00;99857.06;5034625;28;1072;-76
2023/04/24 04:25:07;;;;;;;;;;;;;;;7.83;100.00;99857.88;5042474;28;1168;-76
2023/04/24 04:27:33;;;;;;;;;;;;;;;7.82;100.00;99857.06;5028059;28;1307;-77
2023/04/24 04:30:02;;;;;;;;;;;;;;;7.80;100.00;99858.13;5036344;28;1429;-76
2023/04/24 04:32:28;;;;;;;;;;;;;;;7.79;100.00;99862.47;5031551;28;953;-77
2023/04/24 04:34:53;;;;;;;;;;;;;;;7.78;100.00;99863.44;5031662;28;1416;-76
2023/04/24 04:37:18;;;;;;;;;;;;;;;7.79;100.00;99862.47;5039723;28;1084;-77
2023/04/24 04:39:43;;;;;;;;;;;;;;;7.78;100.00;99857.47;5036305;28;1902;-75
2023/04/24 04:42:09;;;;;;;;;;;;;;;7.84;100.00;99864.66;5047061;28;1558;-76
2023/04/24 04:44:35;;;;;;;;;;;;;;;7.82;100.00;99867.41;5043200;28;1167;-76
2023/04/24 04:47:03;;;;;;;;;;;;;;;7.78;100.00;99871.19;5018469;28;1359;-76
2023/04/24 04:49:29;;;;;;;;;;;;;;;7.82;100.00;99882.06;5035159;28;1427;-76
2023/04/24 04:51:54;;;;;;;;;;;;;;;7.79;100.00;99883.13;5024577;28;1478;-76
2023/04/24 04:54:19;;;;;;;;;;;;;;;7.78;100.00;99891.81;5043871;28;1086;-77
2023/04/24 04:56:44;;;;;;;;;;;;;;;7.78;100.00;99886.66;5042029;28;1097;-77
2023/04/24 04:59:10;;;;;;;;;;;;;;;7.87;100.00;99900.56;5039001;28;999;-77
2023/04/24 05:01:36;;;;;;;;;;;;;;;7.81;100.00;99896.75;5042150;28;1947;-78
2023/04/24 05:04:01;;;;;;;;;;;;;;;7.81;100.00;99896.75;5017074;28;1359;-77
2023/04/24 05:06:27;;;;;;;;;;;;;;;7.82;100.00;99893.22;5036100;28;1085;-77
2023/04/24 05:08:56;;;;;;;;;;;;;;;7.81;100.00;99894.16;5037878;28;1015;-76
2023/04/24 05:11:22;;;;;;;;;;;;;;;7.77;100.00;99890.19;5018124;28;1207;-76
2023/04/24 05:13:47;;;;;;;;;;;;;;;7.84;100.00;99895.66;5033658;28;1224;-77
2023/04/24 05:16:12;;;;;;;;;;;;;;;7.82;100.00;99905.31;5037284;28;1190;-76
2023/04/24 05:18:37;;;;;;;;;;;;;;;7.82;100.00;99897.56;5031855;28;1186;-75
2023/04/24 05:21:03;;;;;;;;;;;;;;;7.84;100.00;99896.47;5037519;28;1890;-75
2023/04/24 05:23:28;;;;;;;;;;;;;;;7.84;100.00;99901.63;5036141;28;1160;-77
2023/04/24 05:25:53;;;;;;;;;;;;;;;7.81;100.00;99898.50;5034338;28;1156;-76
2023/04/24 05:28:19;;;;;;;;;;;;;;;7.87;100.00;99901.38;5018192;28;1358;-75
2023/04/24 05:30:44;;;;;;;;;;;;;;;7.94;100.00;99902.50;5026335;28;1347;-75
2023/04/24 05:33:10;;;;;;;;;;;;;;;7.84;100.00;99906.78;5037678;28;1443;-76
2023/04/24 05:35:35;;;;;;;;;;;;;;;7.91;100.00;99897.59;5034384;28;1454;-78
2023/04/24 05:38:00;;;;;;;;;;;;;;;7.82;100.00;99910.47;5040068;28;1230;-77
2023/04/24 05:40:25;;;;;;;;;;;;;;;7.86;100.00;99910.06;5044761;28;1906;-78
2023/04/24 05:42:50;;;;;;;;;;;;;;;7.84;100.00;99911.13;5023574;28;1192;-76
2023/04/24 05:45:16;;;;;;;;;;;;;;;7.80;100.00;99926.09;5037342;28;1442;-76
2023/04/24 05:47:43;;;;;;;;;;;;;;;7.79;100.00;99921.84;5033644;28;1277;-77
2023/04/24 05:50:08;;;;;;;;;;;;;;;7.80;100.00;99926.09;5046685;28;1083;-76
2023/04/24 05:52:33;;;;;;;;;;;;;;;7.80;100.00;99926.09;5044602;28;1150;-78
2023/04/24 05:54:59;;;;;;;;;;;;;;;7.80;100.00;99941.56;5040874;28;1333;-76
2023/04/24 05:57:24;;;;;;;;;;;;;;;7.79;100.00;99942.50;5037877;28;1566;-76
2023/04/24 05:59:49;;;;;;;;;;;;;;;7.82;100.00;99952.59;5025318;28;1894;-76
2023/04/24 06:02:14;;;;;;;;;;;;;;;7.85;100.00;99952.31;5026369;28;1198;-76
2023/04/24 06:04:40;;;;;;;;;;;;;;;7.81;100.00;99963.84;5039908;28;1125;-78
2023/04/24 06:07:06;;;;;;;;;;;;;;;7.80;100.00;99971.72;5026536;28;1384;-76
2023/04/24 06:09:31;;;;;;;;;;;;;;;7.81;100.00;99976.75;5040635;28;1078;-76
2023/04/24 06:11:57;;;;;;;;;;;;;;;7.85;100.00;99990.22;5041096;28;1164;-76
2023/04/24 06:14:22;;;;;;;;;;;;;;;7.83;100.00;99998.09;5023801;28;1349;-75
2023/04/24 06:16:47;;;;;;;;;;;;;;;7.83;100.00;100000.69;5044859;28;1427;-76
2023/04/24 06:19:13;;;;;;;;;;;;;;;7.83;100.00;100008.44;5035885;28;1304;-76
2023/04/24 06:21:38;;;;;;;;;;;;;;;7.84;100.00;100025.53;5035539;28;1950;-75
2023/04/24 06:24:04;;;;;;;;;;;;;;;7.82;100.00;100024.03;5028898;28;1330;-75
2023/04/24 06:26:29;;;;;;;;;;;;;;;7.80;100.00;100029.34;5025400;28;1194;-76
2023/04/24 06:28:55;;;;;;;;;;;;;;;7.92;100.00;100035.25;5026464;28;1308;-75
2023/04/24 06:31:20;;;;;;;;;;;;;;;7.76;100.00;100042.63;5027417;28;1331;-77
2023/04/24 06:33:45;;;;;;;;;;;;;;;7.75;100.00;100049.56;5020698;28;1366;-74
2023/04/24 06:36:10;;;;;;;;;;;;;;;7.83;100.00;100059.25;5042605;28;1110;-74
2023/04/24 06:38:36;;;;;;;;;;;;;;;7.84;100.00;100059.09;5045104;28;1048;-78
2023/04/24 06:41:01;;;;;;;;;;;;;;;7.72;100.00;100062.69;5041835;28;1906;-74
2023/04/24 06:43:26;;;;;;;;;;;;;;;7.72;100.00;100065.28;5035837;28;1621;-75
2023/04/24 06:45:51;;;;;;;;;;;;;;;7.71;100.00;100073.97;5027012;28;1204;-74
2023/04/24 06:48:17;;;;;;;;;;;;;;;7.74;100.00;100081.44;5039681;28;1142;-74
2023/04/24 06:50:42;;;;;;;;;;;;;;;7.76;100.00;100074.41;5036814;28;1178;-76
2023/04/24 06:53:08;;;;;;;;;;;;;;;7.77;100.00;100081.22;5023698;28;1463;-75
2023/04/24 06:55:33;;;;;;;;;;;;;;;7.77;100.00;100083.78;5038489;28;1137;-75
2023/04/24 06:57:58;;;;;;;;;;;;;;;7.76;100.00;100089.09;5035691;28;1143;-75
2023/04/24 07:00:24;;;;;;;;;;;;;;;7.77;100.00;100091.53;5023589;28;1906;-75
2023/04/24 07:02:49;;;;;;;;;;;;;;;7.78;100.00;100088.00;5036197;28;1136;-75
2023/04/24 07:05:15;;;;;;;;;;;;;;;7.79;100.00;100089.63;5040690;28;1103;-74
2023/04/24 07:07:40;;;;;;;;;;;;;;;7.74;100.00;100091.78;5024068;28;1414;-78
2023/04/24 07:10:05;;;;;;;;;;;;;;;7.89;100.00;100106.03;5035372;28;1261;-75
2023/04/24 07:12:32;;;;;;;;;;;;;;;7.77;100.00;100117.34;5041068;28;1392;-74
2023/04/24 07:14:57;;;;;;;;;;;;;;;7.88;100.00;100114.72;5047405;28;1046;-74
2023/04/24 07:17:22;;;;;;;;;;;;;;;7.79;100.00;100115.44;5024118;28;1433;-77
2023/04/24 07:19:47;;;;;;;;;;;;;;;7.77;100.00;100122.50;5035971;28;1898;-75
2023/04/24 07:22:16;;;;;;;;;;;;;;;7.76;100.00;100141.53;5033932;28;1130;-76
2023/04/24 07:24:43;;;;;;;;;;;;;;;7.81;100.00;100149.72;5039231;28;1081;-75
2023/04/24 07:27:08;;;;;;;;;;;;;;;7.64;100.00;100158.00;5037287;28;1305;-77
2023/04/24 07:29:33;;;;;;;;;;;;;;;7.78;100.00;100180.94;5034848;28;1332;-78
2023/04/24 07:31:58;;;;;;;;;;;;;;;7.54;100.00;100172.56;5046947;28;993;-76
2023/04/24 07:34:23;;;;;;;;;;;;;;;7.49;100.00;100185.03;5045476;28;1494;-75
2023/04/24 07:36:49;;;;;;;;;;;;;;;7.41;100.00;100189.03;5043513;28;1276;-75
2023/04/24 07:39:14;;;;;;;;;;;;;;;7.52;100.00;100200.28;5035217;28;1305;-75
2023/04/24 07:41:39;;;;;;;;;;;;;;;7.39;100.00;100211.53;5035893;28;1894;-76
2023/04/24 07:44:05;;;;;;;;;;;;;;;7.41;100.00;100220.00;5029427;28;1344;-75
2023/04/24 07:46:31;;;;;;;;;;;;;;;7.45;100.00;100226.56;5039150;28;1102;-75
2023/04/24 07:48:56;;;;;;;;;;;;;;;7.44;100.00;100227.47;5021723;28;1363;-75
2023/04/24 07:51:21;;;;;;;;;;;;;;;7.40;100.00;100239.00;5044810;28;1383;-75
2023/04/24 07:53:46;;;;;;;;;;;;;;;7.46;100.00;100242.84;5034609;28;1120;-76
2023/04/24 07:56:12;;;;;;;;;;;;;;;7.35;100.00;100256.59;5039890;28;1132;-76
2023/04/24 07:58:37;;;;;;;;;;;;;;;7.34;100.00;100254.94;5044055;28;1196;-76
2023/04/24 08:01:02;;;;;;;;;;;;;;;7.31;100.00;100270.66;5023140;28;1894;-75
2023/04/24 08:03:27;;;;;;;;;;;;;;;7.34;100.00;100265.25;5027406;28;1504;-76
2023/04/24 08:05:53;;;;;;;;;;;;;;;7.38;100.00;100282.13;5033096;28;1126;-76
2023/04/24 08:08:19;;;;;;;;;;;;;;;7.40;100.00;100280.28;5025202;28;1451;-78
2023/04/24 08:10:44;;;;;;;;;;;;;;;7.35;100.00;100281.56;5040695;28;1277;-76
2023/04/24 08:13:11;;;;;;;;;;;;;;;7.44;100.00;100286.00;5031626;28;1696;-76
2023/04/24 08:15:36;;;;;;;;;;;;;;;7.41;100.00;100294.81;5039004;28;1780;-78
2023/04/24 08:18:01;;;;;;;;;;;;;;;7.41;100.00;100301.72;5024053;28;1349;-76
2023/04/24 08:20:26;;;;;;;;;;;;;;;7.41;100.00;100297.38;5031429;28;1972;-77
2023/04/24 08:22:52;;;;;;;;;;;;;;;7.60;100.00;100316.59;5018574;28;1390;-77
2023/04/24 08:25:18;;;;;;;;;;;;;;;7.46;100.00;100320.25;5033664;28;1086;-77
2023/04/24 08:27:44;;;;;;;;;;;;;;;7.51;100.00;100323.28;5014958;28;1281;-77
2023/04/24 08:30:09;;;;;;;;;;;;;;;7.50;100.00;100331.16;5042682;28;1145;-77
2023/04/24 08:32:35;;;;;;;;;;;;;;;7.53;100.00;100347.22;5026843;28;1490;-78
2023/04/24 08:35:01;;;;;;;;;;;;;;;7.59;100.00;100346.75;5034923;28;1140;-78
2023/04/24 08:37:27;;;;;;;;;;;;;;;7.62;100.00;100350.84;5031891;28;1436;-78
2023/04/24 08:39:52;;;;;;;;;;;;;;;7.70;100.00;100354.50;5033456;28;1963;-78
2023/04/24 08:42:18;;;;;;;;;;;;;;;7.59;100.00;100367.41;5038607;28;1993;-78
2023/04/24 08:44:44;;;;;;;;;;;;;;;7.72;100.00;100362.13;5039863;28;1624;-78
2023/04/24 08:47:10;;;;;;;;;;;;;;;7.56;100.00;100367.63;5018969;28;1295;-77
2023/04/24 08:49:36;;;;;;;;;;;;;;;7.54;100.00;100364.34;5019519;28;1493;-78
2023/04/24 08:52:01;;;;;;;;;;;;;;;7.55;100.00;100375.50;5043651;28;1215;-78
2023/04/24 08:54:28;;;;;;;;;;;;;;;7.63;100.00;100381.72;5026268;28;1299;-78
2023/04/24 08:56:54;;;;;;;;;;;;;;;7.52;100.00;100386.88;5023333;28;1306;-77
2023/04/24 08:59:21;;;;;;;;;;;;;;;7.54;100.00;100399.66;5037369;28;1025;-78
2023/04/24 09:01:48;;;;;;;;;;;;;;;7.60;100.00;100404.34;5022164;28;1898;-78
2023/04/24 09:04:15;;;;;;;;;;;;;;;7.73;100.00;100399.91;5025155;28;1338;-78
2023/04/24 09:06:40;;;;;;;;;;;;;;;7.68;100.00;100412.31;5020839;28;1349;-78
2023/04/24 09:09:05;;;;;;;;;;;;;;;7.77;100.00;100411.63;5030668;28;1146;-78
2023/04/24 09:11:32;;;;;;;;;;;;;;;7.77;100.00;100411.63;5044699;28;1157;-78
2023/04/24 09:13:57;;;;;;;;;;;;;;;7.78;100.00;100421.03;5016270;28;1212;-78
2023/04/24 09:16:24;;;;;;;;;;;;;;;7.83;100.00;100421.50;5030475;28;1225;-78
2023/04/24 09:18:49;;;;;;;;;;;;;;;7.95;100.00;100436.03;5025957;28;1302;-78
2023/04/24 09:21:15;;;;;;;;;;;;;;;7.97;100.00;100439.34;5038985;28;1959;-79
2023/04/24 09:23:40;;;;;;;;;;;;;;;7.94;100.00;100439.56;5035134;28;1316;-78
2023/04/24 09:26:05;;;;;;;;;;;;;;;7.85;100.00;100445.44;5028274;28;1366;-79
2023/04/24 09:28:31;;;;;;;;;;;;;;;7.87;100.00;100445.34;5035904;28;1044;-78
2023/04/24 09:31:07;;;;;;;;;;;;;;;7.80;100.00;100457.88;5038625;28;1096;-78
2023/04/24 09:33:32;;;;;;;;;;;;;;;7.83;100.00;100457.63;5027042;28;1232;-78
2023/04/24 09:35:58;;;;;;;;;;;;;;;7.80;100.00;100459.63;5022403;28;1204;-79
2023/04/24 09:38:30;;;;;;;;;;;;;;;7.81;99.97;100456.94;5022253;28;1236;-81
2023/04/24 09:40:58;;;;;;;;;;;;;;;7.74;100.00;100473.81;5033654;28;1898;-80
2023/04/24 09:43:26;;;;;;;;;;;;;;;7.78;100.00;100479.56;5043932;28;1124;-80
2023/04/24 09:45:55;;;;;;;;;;;;;;;7.97;99.95;100477.22;5036675;28;1150;-81
2023/04/24 09:48:29;;;;;;;;;;;;;;;7.89;100.00;100477.81;5028227;28;1181;-81
2023/04/24 09:50:54;;;;;;;;;;;;;;;8.04;99.39;100477.63;5041098;28;1126;-81
2023/04/24 09:53:23;;;;;;;;;;;;;;;8.09;98.66;100478.91;5043957;28;1171;-81
2023/04/24 09:55:50;;;;;;;;;;;;;;;8.18;97.98;100485.13;5022521;28;1274;-82
2023/04/24 09:58:15;;;;;;;;;;;;;;;8.30;96.71;100497.09;5023388;28;1428;-81
2023/04/24 10:00:40;;;;;;;;;;;;;;;8.41;95.27;100520.38;5039413;28;1890;-81
2023/04/24 10:03:06;;;;;;;;;;;;;;;8.35;95.05;100507.06;5027213;28;1346;-80
2023/04/24 10:05:35;;;;;;;;;;;;;;;8.34;95.01;100508.84;5020547;28;1213;-82
2023/04/24 10:08:11;;;;;;;;;;;;;;;8.42;95.82;100519.41;5045486;28;1160;-81
2023/04/24 10:10:43;;;;;;;;;;;;;;;8.35;94.54;100520.81;5021036;28;1146;-81
2023/04/24 10:13:09;;;;;;;;;;;;;;;8.29;95.11;100525.63;5034467;28;1169;-81
2023/04/24 10:15:35;;;;;;;;;;;;;;;8.22;93.47;100514.94;5044993;28;1179;-81
2023/04/24 10:18:00;;;;;;;;;;;;;;;8.24;93.37;100528.56;5031660;28;1144;-81
2023/04/24 10:20:27;;;;;;;;;;;;;;;8.26;93.76;100529.28;5041885;28;1898;-82
2023/04/24 10:22:53;;;;;;;;;;;;;;;8.22;93.52;100540.78;5028709;28;1256;-80
2023/04/24 10:25:19;;;;;;;;;;;;;;;8.22;94.34;100540.78;5020875;28;1268;-80
2023/04/24 10:27:45;;;;;;;;;;;;;;;8.28;93.12;100545.47;5033646;28;1089;-81
2023/04/24 10:30:11;;;;;;;;;;;;;;;8.30;94.50;100546.16;5044502;28;1091;-81
2023/04/24 10:32:37;;;;;;;;;;;;;;;8.36;93.63;100550.91;5023076;28;1428;-81
2023/04/24 10:35:02;;;;;;;;;;;;;;;8.38;93.38;100551.63;5034075;28;1136;-80
2023/04/24 10:37:28;;;;;;;;;;;;;;;8.31;92.26;100557.31;5041786;28;1281;-80
2023/04/24 10:39:54;;;;;;;;;;;;;;;8.32;92.00;100572.75;5022499;28;1890;-80
2023/04/24 10:42:19;;;;;;;;;;;;;;;8.20;91.04;100561.56;5040863;28;1189;-81
2023/04/24 10:44:47;;;;;;;;;;;;;;;8.18;90.91;100570.38;5036515;28;1144;-80
2023/04/24 10:47:12;;;;;;;;;;;;;;;8.09;91.56;100560.75;5029466;28;1149;-81
2023/04/24 10:49:37;;;;;;;;;;;;;;;8.22;89.39;100571.78;5029566;28;1346;-81
2023/04/24 10:52:06;;;;;;;;;;;;;;;8.09;91.38;100565.91;5038545;28;2153;-80
2023/04/24 10:54:35;;;;;;;;;;;;;;;8.20;89.96;100573.63;5037335;28;964;-81
2023/04/24 10:57:19;;;;;;;;;;;;;;;8.25;90.28;100571.53;5034783;28;1114;-80
2023/04/24 10:59:45;;;;;;;;;;;;;;;8.44;90.13;100582.16;5028353;28;1894;-80
2023/04/24 11:02:10;;;;;;;;;;;;;;;8.48;90.06;100582.72;5027753;28;1199;-81
2023/04/24 11:04:36;;;;;;;;;;;;;;;8.54;90.63;100573.69;5030050;28;1156;-80
2023/04/24 11:07:02;;;;;;;;;;;;;;;8.61;89.06;100588.63;5020688;28;1431;-79
2023/04/24 11:09:29;;;;;;;;;;;;;;;8.60;88.95;100586.13;5040052;28;1124;-81
2023/04/24 11:12:06;;;;;;;;;;;;;;;8.74;86.73;100591.09;5034789;28;1088;-81
2023/04/24 11:14:51;;;;;;;;;;;;;;;8.57;87.87;100599.31;5046586;28;1166;-81
2023/04/24 11:17:30;;;;;;;;;;;;;;;8.49;88.98;100600.72;5035529;28;1091;-82
2023/04/24 11:20:00;;;;;;;;;;;;;;;8.47;89.74;100602.59;5017383;28;1941;-81
2023/04/24 11:22:28;;;;;;;;;;;;;;;8.59;88.03;100600.00;5032881;28;1081;-81
2023/04/24 11:24:53;;;;;;;;;;;;;;;8.47;89.14;100606.94;5026429;28;1306;-80
2023/04/24 11:27:19;;;;;;;;;;;;;;;8.49;88.45;100605.91;5040645;28;1117;-80
2023/04/24 11:29:56;;;;;;;;;;;;;;;8.58;88.17;100613.88;5034045;28;1331;-79
2023/04/24 11:32:28;;;;;;;;;;;;;;;8.41;88.86;100623.72;5045785;28;938;-81
2023/04/24 11:34:54;;;;;;;;;;;;;;;8.44;88.54;100623.53;5032792;28;1053;-77
2023/04/24 11:37:19;;;;;;;;;;;;;;;8.35;88.65;100631.91;5030148;28;1110;-79
2023/04/24 11:39:45;;;;;;;;;;;;;;;8.35;88.98;100624.16;5034589;28;1962;-79
2023/04/24 11:42:10;;;;;;;;;;;;;;;8.38;88.76;100634.31;5029001;28;1435;-81
2023/04/24 11:44:37;;;;;;;;;;;;;;;8.45;89.93;100625.16;5038643;28;1185;-80
2023/04/24 11:47:05;;;;;;;;;;;;;;;8.52;90.32;100623.75;5034962;28;1095;-81
2023/04/24 11:49:30;;;;;;;;;;;;;;;8.65;89.98;100625.38;5034465;28;1018;-80
2023/04/24 11:51:56;;;;;;;;;;;;;;;8.67;88.44;100633.88;5039825;28;1171;-80
2023/04/24 11:54:21;;;;;;;;;;;;;;;8.74;88.88;100640.22;5029146;28;1255;-80
2023/04/24 11:56:47;;;;;;;;;;;;;;;8.77;88.64;100650.31;5017118;28;1349;-80
2023/04/24 11:59:12;;;;;;;;;;;;;;;8.92;88.03;100651.72;5022129;28;1180;-80
2023/04/24 12:01:47;;;;;;;;;;;;;;;9.04;86.40;100653.34;5028169;28;2002;-80
2023/04/24 12:04:12;;;;;;;;;;;;;;;8.98;85.62;100653.81;5037007;28;1157;-81
2023/04/24 12:06:38;;;;;;;;;;;;;;;8.87;84.06;100661.59;5036299;28;1085;-80
2023/04/24 12:09:03;;;;;;;;;;;;;;;9.00;82.77;100672.66;5036968;28;1092;-79
2023/04/24 12:11:28;;;;;;;;;;;;;;;9.02;82.13;100670.75;5039380;28;1092;-80
2023/04/24 12:13:53;;;;;;;;;;;;;;;8.80;83.44;100669.94;5043300;28;1211;-80
2023/04/24 12:16:19;;;;;;;;;;;;;;;8.71;83.45;100676.63;5038166;28;1081;-80
2023/04/24 12:18:45;;;;;;;;;;;;;;;8.62;85.27;100677.34;5020677;28;1200;-80
2023/04/24 12:21:19;;;;;;;;;;;;;;;8.64;85.39;100675.47;5035648;28;1914;-81
2023/04/24 12:23:47;;;;;;;;;;;;;;;8.62;86.73;100682.50;5040329;28;1566;-80
2023/04/24 12:26:16;;;;;;;;;;;;;;;8.60;88.52;100684.38;5025000;28;1204;-80
2023/04/24 12:28:41;;;;;;;;;;;;;;;8.68;87.20;100693.22;5032406;28;1242;-80
2023/04/24 12:31:07;;;;;;;;;;;;;;;8.63;87.94;100694.50;5043618;28;1020;-80
2023/04/24 12:33:34;;;;;;;;;;;;;;;8.61;90.80;100697.22;5023601;28;1302;-80
2023/04/24 12:35:59;;;;;;;;;;;;;;;8.66;89.21;100699.41;5018595;28;1345;-80
2023/04/24 12:38:26;;;;;;;;;;;;;;;8.66;89.83;100695.09;5042278;28;1426;-80
2023/04/24 12:41:04;;;;;;;;;;;;;;;8.88;90.43;100702.03;5022604;28;1973;-79
2023/04/24 12:43:30;;;;;;;;;;;;;;;8.91;90.89;100699.22;5036468;28;1042;-81
2023/04/24 12:45:55;;;;;;;;;;;;;;;9.09;91.68;100706.50;5029151;28;1198;-81
2023/04/24 12:48:21;;;;;;;;;;;;;;;9.30;90.98;100699.66;5024101;28;1374;-80